createdAt,value
2023-01-29T06:01:52.848Z,0.373
2023-01-29T06:08:35.885Z,0.747
2023-01-29T06:11:14.052Z,1.494
2023-01-29T06:15:34.191Z,2.614
2023-01-29T06:18:07.225Z,4.482
2023-01-29T06:21:00.776Z,7.096
2023-01-29T06:24:04.430Z,13.072
2023-01-29T06:26:52.800Z,20.916
2023-01-29T06:29:25.863Z,31.747
2023-01-29T06:32:19.427Z,54.904
2023-01-29T06:35:33.284Z,92.628
2023-01-29T06:38:16.540Z,134.46
2023-01-29T06:41:04.896Z,191.232
2023-01-29T06:44:23.866Z,273.402
2023-01-29T06:47:07.211Z,333.162
2023-01-29T06:49:45.353Z,385.452
2023-01-29T06:52:54.242Z,478.08
2023-01-29T06:55:32.344Z,600.588
2023-01-29T06:58:10.534Z,726.084
2023-01-29T07:00:48.808Z,878.472
2023-01-29T07:03:26.914Z,997.992
2023-01-29T07:06:56.063Z,1129.464
2023-01-29T07:09:34.200Z,1260.936
2023-01-29T07:12:17.457Z,1476.072
2023-01-29T07:15:15.985Z,1661.328
2023-01-29T07:18:19.705Z,1828.656
2023-01-29T07:21:13.245Z,1960.128
2023-01-29T07:23:51.376Z,1972.08
2023-01-29T07:26:24.457Z,2103.552
2023-01-29T07:31:35.646Z,2342.592
2023-01-29T07:34:29.001Z,2474.064
2023-01-29T07:37:12.305Z,3011.904
2023-01-29T07:40:00.629Z,3968.064
2023-01-29T07:44:10.637Z,5474.016
2023-01-29T07:46:43.677Z,4756.896
2023-01-29T07:52:10.132Z,5760.864
2023-01-29T07:54:53.331Z,6023.808
2023-01-29T07:57:36.615Z,6095.52
2023-01-29T08:00:09.650Z,6310.656
2023-01-29T08:03:38.795Z,6740.928
2023-01-29T08:06:52.754Z,6836.544
2023-01-29T08:10:11.772Z,5904.288
2023-01-29T08:12:44.901Z,5474.016
2023-01-29T08:15:39.334Z,5115.456
2023-01-29T08:18:11.512Z,5330.592
2023-01-29T08:21:35.586Z,5163.264
2023-01-29T08:24:08.640Z,4924.224
2023-01-29T08:26:57.103Z,4637.376
2023-01-29T08:29:55.665Z,4661.28
2023-01-29T08:32:44.056Z,4756.896
2023-01-29T08:35:42.698Z,5019.84
2023-01-29T08:38:36.149Z,5545.728
2023-01-29T08:41:19.437Z,5832.576
2023-01-29T08:43:57.647Z,5976
2023-01-29T08:46:40.873Z,5976
2023-01-29T08:49:39.514Z,5880.384
2023-01-29T08:52:17.695Z,5593.536
2023-01-29T08:55:26.560Z,5402.304
2023-01-29T08:58:09.798Z,5497.92
2023-01-29T09:00:42.879Z,5880.384
2023-01-29T09:03:36.388Z,6310.656
2023-01-29T09:06:24.737Z,6740.928
2023-01-29T09:11:15.628Z,6932.16
2023-01-29T09:15:46.088Z,6884.352
2023-01-29T09:18:39.599Z,7075.584
2023-01-29T09:21:33.065Z,7362.432
2023-01-29T09:24:52.004Z,7697.088
2023-01-29T09:28:11.040Z,7649.28
2023-01-29T09:31:04.688Z,7410.24
2023-01-29T09:34:33.698Z,7219.008
2023-01-29T09:37:22.171Z,7410.24
2023-01-29T09:39:55.133Z,7744.896
2023-01-29T09:42:43.573Z,7744.896
2023-01-29T09:45:37.139Z,7553.664
2023-01-29T09:48:30.627Z,7123.392
2023-01-29T09:54:38.031Z,7075.584
2023-01-29T09:57:11.071Z,7123.392
2023-01-29T10:00:04.572Z,7027.776
2023-01-29T10:03:33.814Z,7027.776
2023-01-29T10:06:06.864Z,6979.968
2023-01-29T10:08:55.270Z,7266.816
2023-01-29T10:11:33.363Z,7888.32
2023-01-29T10:14:11.595Z,9035.712
2023-01-29T10:16:59.995Z,9418.176
2023-01-29T10:19:48.408Z,9657.216
2023-01-29T10:23:53.319Z,9848.448
2023-01-29T10:28:03.326Z,10278.72
2023-01-29T10:32:54.132Z,11282.688
2023-01-29T10:35:32.308Z,11808.576
2023-01-29T10:38:20.657Z,12191.04
2023-01-29T10:40:58.852Z,12430.08
2023-01-29T10:44:02.558Z,12143.232
2023-01-29T10:47:16.522Z,12095.424
2023-01-29T10:49:49.541Z,12334.464
2023-01-29T10:52:48.147Z,12621.312
2023-01-29T10:55:36.613Z,12812.544
2023-01-29T11:01:13.501Z,13003.776
2023-01-29T11:04:52.853Z,13386.24
2023-01-29T11:07:31.026Z,13959.936
2023-01-29T11:10:55.116Z,14724.864
2023-01-29T11:14:54.921Z,14916.096
2023-01-29T11:17:33.102Z,14342.4
2023-01-29T11:20:26.676Z,13864.32
2023-01-29T11:23:40.477Z,12908.16
2023-01-29T11:26:13.627Z,12621.312
2023-01-29T11:28:46.636Z,11808.576
2023-01-29T11:31:40.196Z,11952
2023-01-29T11:34:33.632Z,11234.88
2023-01-29T11:37:17.003Z,12238.848
2023-01-29T11:39:55.122Z,14629.248
2023-01-29T11:42:33.283Z,14629.248
2023-01-29T11:45:26.796Z,16350.336
2023-01-29T11:48:05.068Z,16159.104
2023-01-29T11:51:05.584Z,21035.52
2023-01-29T11:53:42.269Z,15585.408
2023-01-29T11:56:20.464Z,16063.488
2023-01-29T11:59:34.365Z,14724.864
2023-01-29T12:02:07.466Z,14820.48
2023-01-29T12:04:40.517Z,16924.032
2023-01-29T12:07:28.893Z,19218.816
2023-01-29T12:10:12.186Z,20270.592
2023-01-29T12:13:05.713Z,20844.288
2023-01-29T12:16:09.482Z,18645.12
2023-01-29T12:18:50.786Z,20174.976
2023-01-29T12:21:28.940Z,19983.744
2023-01-29T12:24:02.125Z,19888.128
2023-01-29T12:26:40.368Z,17210.88
2023-01-29T12:29:28.674Z,17593.344
2023-01-29T12:32:06.881Z,17497.728
2023-01-29T12:34:45.080Z,18358.272
2023-01-29T12:37:18.172Z,15872.256
2023-01-29T12:39:56.377Z,17019.648
2023-01-29T12:42:29.507Z,18262.656
2023-01-29T12:45:02.625Z,16350.336
2023-01-29T12:47:51.035Z,17210.88
2023-01-29T12:50:34.325Z,18071.424
2023-01-29T12:53:07.398Z,15394.176
2023-01-29T12:55:45.588Z,16063.488
2023-01-29T12:58:49.315Z,14724.864
2023-01-29T13:01:22.428Z,14533.632
2023-01-29T13:04:00.546Z,13673.088
2023-01-29T13:06:48.948Z,12238.848
2023-01-29T13:09:22.054Z,12191.04
2023-01-29T13:11:55.086Z,12812.544
2023-01-29T13:14:28.218Z,13195.008
2023-01-29T13:17:16.551Z,13768.704
2023-01-29T13:19:59.859Z,12430.08
2023-01-29T13:22:33.033Z,11426.112
2023-01-29T13:25:06.172Z,12525.696
2023-01-29T13:27:59.659Z,12525.696
2023-01-29T13:30:53.190Z,13099.392
2023-01-29T13:33:36.418Z,12430.08
2023-01-29T13:36:09.500Z,13768.704
2023-01-29T13:38:42.605Z,13386.24
2023-01-29T13:41:25.914Z,11282.688
2023-01-29T13:44:29.604Z,12334.464
2023-01-29T13:47:12.957Z,11760.768
2023-01-29T13:49:51.128Z,12716.928
2023-01-29T13:52:24.285Z,10900.224
2023-01-29T13:54:57.330Z,11856.384
2023-01-29T13:57:35.554Z,9752.832
2023-01-29T14:00:08.660Z,8987.904
2023-01-29T14:02:41.799Z,8748.864
2023-01-29T14:05:30.168Z,7983.936
2023-01-29T14:08:28.704Z,7840.512
2023-01-29T14:11:01.837Z,7792.704
2023-01-29T14:14:51.469Z,7840.512
2023-01-29T14:18:00.242Z,7314.624
2023-01-29T14:20:45.778Z,6597.504
2023-01-29T14:23:16.605Z,6358.464
2023-01-29T14:28:07.421Z,6167.232
2023-01-29T14:30:40.623Z,5928.192
2023-01-29T14:33:23.792Z,5617.44
2023-01-29T14:35:56.865Z,5282.784
2023-01-29T14:38:29.965Z,5067.648
2023-01-29T14:41:33.640Z,4948.128
2023-01-29T14:44:22.035Z,4804.704
2023-01-29T14:47:20.589Z,4732.992
2023-01-29T14:49:53.697Z,4517.856
2023-01-29T14:52:42.084Z,4183.2
2023-01-29T14:55:25.381Z,3657.312
2023-01-29T14:58:03.632Z,3298.752
2023-01-29T15:00:36.756Z,3107.52
2023-01-29T15:03:09.855Z,2952.144
2023-01-29T15:06:13.478Z,2868.48
2023-01-29T15:08:46.668Z,2713.104
2023-01-29T15:11:29.860Z,2569.68
2023-01-29T15:14:08.099Z,2366.496
2023-01-29T15:17:37.324Z,2043.792
2023-01-29T15:20:30.805Z,1816.704
2023-01-29T15:23:14.088Z,1625.472
2023-01-29T15:25:57.434Z,1476.072
2023-01-29T15:29:11.270Z,1308.744
2023-01-29T15:31:46.911Z,1153.368
2023-01-29T15:34:17.554Z,1015.92
2023-01-29T15:36:55.690Z,872.496
2023-01-29T15:39:33.850Z,755.964
2023-01-29T15:42:27.356Z,660.348
2023-01-29T15:45:25.948Z,576.684
2023-01-29T15:47:58.990Z,481.068
2023-01-29T15:50:47.335Z,388.44
2023-01-29T15:53:30.682Z,319.716
2023-01-29T15:56:03.695Z,270.414
2023-01-29T15:58:36.771Z,231.57
2023-01-29T16:01:15.017Z,180.774
2023-01-29T16:03:48.128Z,131.472
2023-01-29T16:06:21.205Z,93.001
2023-01-29T16:09:04.442Z,62.001
2023-01-29T16:11:37.567Z,41.832
2023-01-29T16:14:31.057Z,26.145
2023-01-29T16:17:09.281Z,16.807
2023-01-29T16:19:52.494Z,10.831
2023-01-29T16:22:35.854Z,7.096
2023-01-29T16:25:24.178Z,4.108
2023-01-29T16:29:13.848Z,2.241
2023-01-29T16:32:32.851Z,1.12
2023-01-29T16:36:12.268Z,0.373
2023-01-29T16:43:51.482Z,0
